Gabriella — OJHP — position and weather

sailwx.info

Track history (hours):
 
Tides and Currents Weather Stations Pressure Air Temp Water Temp Dewpoint Dewpoint Depression Visibility Wind Speed Wind Dir Waves Ship Positions

Gabriella

Last reported at 2016-Oct-01 14:34 UTC. Time now 2016-Oct-01 15:30 UTC.
Position N 59°19' E 018°08'.

Length 172 m; draft 6.5 m.

Type: Ship (hazmat cat A). MMSI: 230361000.

Date/timePositionNaut miles runAvg speedWind from/ knotsBaromVisibWave heightAir tempDewpointWater temp
2016-Oct-01 14:34N 59°19' E 018°08'1 1.1
2016-Oct-01 13:32N 59°19' E 018°06'93 6.9
2016-Oct-01 00:05N 59°37' E 021°06'2214.7
2016-Sep-30 22:33N 59°32' E 021°49'6312.6
2016-Sep-30 17:33N 59°45' E 023°51'1513.6
2016-Sep-30 16:26N 59°49' E 024°19'29 2.3
2016-Sep-30 03:33N 59°42' E 023°23'15113.3
2016-Sep-29 16:11N 59°27' E 018°26'6 9.3
2016-Sep-29 15:34N 59°22' E 018°27'1010.0
2016-Sep-29 14:33N 59°19' E 018°08'1 0.9
2016-Sep-29 13:34N 59°19' E 018°06'0 0.0
2016-Sep-29 08:33N 59°19' E 018°06'4 4.1
2016-Sep-29 07:34N 59°21' E 018°13'99 9.9
2016-Sep-28 21:33N 59°34' E 021°26'8617.2
2016-Sep-28 16:33N 59°48' E 024°15'26 2.0
2016-Sep-28 03:33N 59°42' E 023°24'3718.0
2016-Sep-28 01:32N 59°34' E 022°13'3617.6
2016-Sep-27 23:30N 59°36' E 021°03'9110.1
2016-Sep-27 14:33N 59°19' E 018°08'1 1.0
2016-Sep-27 13:31N 59°19' E 018°06'0 0.0
2016-Sep-27 10:31N 59°19' E 018°06'120 8.6
2016-Sep-26 20:33N 59°33' E 021°60'1717.3
2016-Sep-26 19:33N 59°36' E 022°34'10 0.6
2016-Sep-26 01:33N 59°34' E 022°14'1817.8
2016-Sep-26 00:33N 59°32' E 021°40'9811.8
2016-Sep-25 16:17N 59°29' E 018°27'7 9.6
2016-Sep-25 15:33N 59°22' E 018°27'1010.1
2016-Sep-25 14:33N 59°19' E 018°08'1 0.5
2016-Sep-25 12:32N 59°19' E 018°06'0 0.0
2016-Sep-25 11:32N 59°19' E 018°06'0 0.0
2016-Sep-25 10:32N 59°19' E 018°06'0 0.0
2016-Sep-25 09:32N 59°19' E 018°06'2 1.3
2016-Sep-25 07:33N 59°20' E 018°11'91 9.7
2016-Sep-24 22:10N 59°37' E 021°07'1017.1
2016-Sep-24 21:33N 59°34' E 021°26'5117.1
2016-Sep-24 18:33N 59°39' E 023°07'1717.4
2016-Sep-24 17:33N 59°43' E 023°41'1817.4
2016-Sep-24 16:33N 59°48' E 024°14'24 1.9
2016-Sep-24 03:33N 59°42' E 023°28'4018.2
2016-Sep-24 01:22N 59°33' E 022°11'1518.0
2016-Sep-24 00:33N 59°32' E 021°42'10012.0
2016-Sep-23 16:16N 59°28' E 018°26'7 9.4
2016-Sep-23 15:33N 59°22' E 018°27'11 5.4
2016-Sep-23 13:31N 59°19' E 018°06'0 0.0
2016-Sep-23 09:31N 59°19' E 018°06'12 3.9
2016-Sep-23 06:33N 59°24' E 018°27'10910.9
2016-Sep-22 20:33N 59°33' E 022°01'61 3.8
2016-Sep-22 04:33N 59°47' E 023°58'1817.8
2016-Sep-22 03:33N 59°42' E 023°24'5317.7
2016-Sep-22 00:33N 59°33' E 021°40'9811.7
2016-Sep-21 16:11N 59°29' E 018°27'  
Track history (hours):
 
Tides and Currents Weather Stations Pressure Air Temp Water Temp Dewpoint Dewpoint Depression Visibility Wind Speed Wind Dir Waves Ship Positions

Gabriella

Last reported at 2016-Oct-01 14:34 UTC. Time now 2016-Oct-01 15:30 UTC.
Position N 59°19' E 018°08'.

Length 172 m; draft 6.5 m.

Type: Ship (hazmat cat A). MMSI: 230361000.

Date/timePositionNaut miles runAvg speedWind from/ knotsBaromVisibWave heightAir tempDewpointWater temp
2016-Oct-01 14:34N 59°19' E 018°08'1 1.1
2016-Oct-01 13:32N 59°19' E 018°06'93 6.9
2016-Oct-01 00:05N 59°37' E 021°06'2214.7
2016-Sep-30 22:33N 59°32' E 021°49'6312.6
2016-Sep-30 17:33N 59°45' E 023°51'1513.6
2016-Sep-30 16:26N 59°49' E 024°19'29 2.3
2016-Sep-30 03:33N 59°42' E 023°23'15113.3
2016-Sep-29 16:11N 59°27' E 018°26'6 9.3
2016-Sep-29 15:34N 59°22' E 018°27'1010.0
2016-Sep-29 14:33N 59°19' E 018°08'1 0.9
2016-Sep-29 13:34N 59°19' E 018°06'0 0.0
2016-Sep-29 08:33N 59°19' E 018°06'4 4.1
2016-Sep-29 07:34N 59°21' E 018°13'99 9.9
2016-Sep-28 21:33N 59°34' E 021°26'8617.2
2016-Sep-28 16:33N 59°48' E 024°15'26 2.0
2016-Sep-28 03:33N 59°42' E 023°24'3718.0
2016-Sep-28 01:32N 59°34' E 022°13'3617.6
2016-Sep-27 23:30N 59°36' E 021°03'9110.1
2016-Sep-27 14:33N 59°19' E 018°08'1 1.0
2016-Sep-27 13:31N 59°19' E 018°06'0 0.0
2016-Sep-27 10:31N 59°19' E 018°06'120 8.6
2016-Sep-26 20:33N 59°33' E 021°60'1717.3
2016-Sep-26 19:33N 59°36' E 022°34'10 0.6
2016-Sep-26 01:33N 59°34' E 022°14'1817.8
2016-Sep-26 00:33N 59°32' E 021°40'9811.8
2016-Sep-25 16:17N 59°29' E 018°27'7 9.6
2016-Sep-25 15:33N 59°22' E 018°27'1010.1
2016-Sep-25 14:33N 59°19' E 018°08'1 0.5
2016-Sep-25 12:32N 59°19' E 018°06'0 0.0
2016-Sep-25 11:32N 59°19' E 018°06'0 0.0
2016-Sep-25 10:32N 59°19' E 018°06'0 0.0
2016-Sep-25 09:32N 59°19' E 018°06'2 1.3
2016-Sep-25 07:33N 59°20' E 018°11'91 9.7
2016-Sep-24 22:10N 59°37' E 021°07'1017.1
2016-Sep-24 21:33N 59°34' E 021°26'5117.1
2016-Sep-24 18:33N 59°39' E 023°07'1717.4
2016-Sep-24 17:33N 59°43' E 023°41'1817.4
2016-Sep-24 16:33N 59°48' E 024°14'24 1.9
2016-Sep-24 03:33N 59°42' E 023°28'4018.2
2016-Sep-24 01:22N 59°33' E 022°11'1518.0
2016-Sep-24 00:33N 59°32' E 021°42'10012.0
2016-Sep-23 16:16N 59°28' E 018°26'7 9.4
2016-Sep-23 15:33N 59°22' E 018°27'11 5.4
2016-Sep-23 13:31N 59°19' E 018°06'0 0.0
2016-Sep-23 09:31N 59°19' E 018°06'12 3.9
2016-Sep-23 06:33N 59°24' E 018°27'10910.9
2016-Sep-22 20:33N 59°33' E 022°01'61 3.8
2016-Sep-22 04:33N 59°47' E 023°58'1817.8
2016-Sep-22 03:33N 59°42' E 023°24'5317.7
2016-Sep-22 00:33N 59°33' E 021°40'9811.7
2016-Sep-21 16:11N 59°29' E 018°27'  

Dump ship's entire track history